createdAt,value
2019-02-26T00:00:17.146Z,14.23
2019-02-26T00:02:48.659Z,9.60
2019-02-26T00:05:19.386Z,8.83
2019-02-26T00:07:49.227Z,7.50
2019-02-26T00:10:17.080Z,7.70
2019-02-26T00:12:45.522Z,5.43
2019-02-26T00:15:14.007Z,4.93
2019-02-26T00:17:45.259Z,5.97
2019-02-26T00:20:15.014Z,4.83
2019-02-26T00:22:42.982Z,5.37
2019-02-26T00:25:12.853Z,4.23
2019-02-26T00:27:42.090Z,4.17
2019-02-26T00:30:16.226Z,3.57
2019-02-26T00:32:44.253Z,4.13
2019-02-26T00:35:12.864Z,4.87
2019-02-26T00:37:41.386Z,6.20
2019-02-26T00:40:12.380Z,6.13
2019-02-26T00:42:41.497Z,5.20
2019-02-26T00:45:14.077Z,5.77
2019-02-26T00:47:43.557Z,5.17
2019-02-26T00:50:16.656Z,5.27
2019-02-26T00:52:45.300Z,5.63
2019-02-26T00:55:13.857Z,5.50
2019-02-26T00:57:42.998Z,6.23
2019-02-26T01:00:16.634Z,6.10
2019-02-26T01:02:45.182Z,6.53
2019-02-26T01:05:16.042Z,5.70
2019-02-26T01:07:46.731Z,6.67
2019-02-26T01:10:16.404Z,6.93
2019-02-26T01:12:45.442Z,7.37
2019-02-26T01:15:17.992Z,6.60
2019-02-26T01:17:46.622Z,5.00
2019-02-26T01:20:16.601Z,8.13
2019-02-26T01:22:45.557Z,5.13
2019-02-26T01:25:15.933Z,5.93
2019-02-26T01:27:47.666Z,5.07
2019-02-26T01:30:21.086Z,5.60
2019-02-26T01:32:46.147Z,4.37
2019-02-26T01:35:14.692Z,5.50
2019-02-26T01:37:43.161Z,6.03
2019-02-26T01:40:16.377Z,5.80
2019-02-26T01:42:50.118Z,5.33
2019-02-26T01:45:15.338Z,8.00
2019-02-26T01:47:46.188Z,5.27
2019-02-26T01:50:16.170Z,4.83
2019-02-26T01:52:44.440Z,4.47
2019-02-26T01:55:13.237Z,4.23
2019-02-26T01:57:43.357Z,4.23
2019-02-26T02:00:19.191Z,4.33
2019-02-26T02:02:47.724Z,4.17
2019-02-26T02:05:16.280Z,3.50
2019-02-26T02:07:46.668Z,3.53
2019-02-26T02:10:15.860Z,3.70
2019-02-26T02:12:44.319Z,5.53
2019-02-26T02:15:17.907Z,5.73
2019-02-26T02:17:45.301Z,4.30
2019-02-26T02:20:18.694Z,4.13
2019-02-26T02:22:46.119Z,4.63
2019-02-26T02:25:14.909Z,6.33
2019-02-26T02:27:47.599Z,3.83
2019-02-26T02:30:22.428Z,4.90
2019-02-26T02:32:51.273Z,5.70
2019-02-26T02:35:19.338Z,8.77
2019-02-26T02:37:48.186Z,6.43
2019-02-26T02:40:16.667Z,5.80
2019-02-26T02:42:48.621Z,6.70
2019-02-26T02:45:20.149Z,7.07
2019-02-26T02:47:45.689Z,5.87
2019-02-26T02:50:16.217Z,5.63
2019-02-26T02:52:44.990Z,5.90
2019-02-26T02:55:16.479Z,5.73
2019-02-26T02:57:43.730Z,4.50
2019-02-26T03:00:14.687Z,4.27
2019-02-26T03:02:46.499Z,5.07
2019-02-26T03:05:14.023Z,4.87
2019-02-26T03:07:44.907Z,5.03
2019-02-26T03:10:14.323Z,5.17
2019-02-26T03:12:46.998Z,4.07
2019-02-26T03:15:15.150Z,4.67
2019-02-26T03:17:43.679Z,4.47
2019-02-26T03:20:13.477Z,5.73
2019-02-26T03:22:45.346Z,4.73
2019-02-26T03:25:20.490Z,4.67
2019-02-26T03:27:47.292Z,3.80
2019-02-26T03:30:27.343Z,3.20
2019-02-26T03:32:55.960Z,3.63
2019-02-26T03:35:23.321Z,3.47
2019-02-26T03:37:54.018Z,3.83
2019-02-26T03:40:23.871Z,4.37
2019-02-26T03:42:51.009Z,7.77
2019-02-26T03:45:23.911Z,4.73
2019-02-26T03:47:49.809Z,3.80
2019-02-26T03:50:18.620Z,4.37
2019-02-26T03:52:47.144Z,4.00
2019-02-26T03:55:18.808Z,3.97
2019-02-26T03:57:47.504Z,4.43
2019-02-26T04:00:20.119Z,4.63
2019-02-26T04:02:51.658Z,3.20
2019-02-26T04:05:19.386Z,3.07
2019-02-26T04:07:49.870Z,2.60
2019-02-26T04:10:18.118Z,2.57
2019-02-26T04:12:48.950Z,3.70
2019-02-26T04:15:19.913Z,1.60
2019-02-26T04:17:48.455Z,1.63
2019-02-26T04:20:17.038Z,2.90
2019-02-26T04:22:48.981Z,2.93
2019-02-26T04:25:41.662Z,4.70
2019-02-26T04:28:25.098Z,4.10
2019-02-26T04:30:58.439Z,2.17
2019-02-26T04:34:05.109Z,2.10
2019-02-26T04:36:44.754Z,4.87
2019-02-26T04:39:47.652Z,2.80
2019-02-26T04:42:32.750Z,3.13
2019-02-26T04:45:13.158Z,2.30
2019-02-26T04:47:58.347Z,2.50
2019-02-26T04:50:31.703Z,1.93
2019-02-26T04:53:01.448Z,2.17
2019-02-26T04:55:29.742Z,2.00
2019-02-26T04:57:58.235Z,3.70
2019-02-26T05:00:29.897Z,4.60
2019-02-26T05:02:57.603Z,3.87
2019-02-26T05:05:28.528Z,3.63
2019-02-26T05:07:56.321Z,2.43
2019-02-26T05:10:27.058Z,2.57
2019-02-26T05:12:57.260Z,2.30
2019-02-26T05:15:26.510Z,2.57
2019-02-26T05:17:55.343Z,2.70
2019-02-26T05:20:23.807Z,2.33
2019-02-26T05:22:57.661Z,1.70
2019-02-26T05:25:25.486Z,2.77
2019-02-26T05:27:53.961Z,2.43
2019-02-26T05:30:22.696Z,0.90
2019-02-26T05:32:54.094Z,1.33
2019-02-26T05:35:23.346Z,1.47
2019-02-26T05:37:51.731Z,1.20
2019-02-26T05:40:22.212Z,2.93
2019-02-26T05:42:50.485Z,1.20
2019-02-26T05:45:18.935Z,2.57
2019-02-26T05:48:06.761Z,2.63
2019-02-26T05:50:37.955Z,2.47
2019-02-26T05:53:07.534Z,2.63
2019-02-26T05:55:35.793Z,1.10
2019-02-26T05:58:04.301Z,3.13
2019-02-26T06:00:33.405Z,2.73
2019-02-26T06:03:03.644Z,2.10
2019-02-26T06:05:32.242Z,1.60
2019-02-26T06:08:00.700Z,3.63
2019-02-26T06:10:31.981Z,3.07
2019-02-26T06:12:59.402Z,4.23
2019-02-26T06:15:28.840Z,1.97
2019-02-26T06:17:58.173Z,3.40
2019-02-26T06:20:28.721Z,3.17
2019-02-26T06:22:56.846Z,2.00
2019-02-26T06:25:25.325Z,4.77
2019-02-26T06:27:54.193Z,2.37
2019-02-26T06:30:22.716Z,2.87
2019-02-26T06:32:51.261Z,4.00
2019-02-26T06:35:19.812Z,3.20
2019-02-26T06:37:48.285Z,2.27
2019-02-26T06:40:17.527Z,2.37
2019-02-26T06:42:46.023Z,4.07
2019-02-26T06:45:16.672Z,2.90
2019-02-26T06:47:45.762Z,3.60
2019-02-26T06:50:18.186Z,3.50
2019-02-26T06:52:47.929Z,3.23
2019-02-26T06:55:15.855Z,3.67
2019-02-26T06:57:47.129Z,2.93
2019-02-26T07:00:21.568Z,6.50
2019-02-26T07:02:48.945Z,3.23
2019-02-26T07:05:17.441Z,4.37
2019-02-26T07:07:45.949Z,3.97
2019-02-26T07:10:18.350Z,4.27
2019-02-26T07:12:48.040Z,4.33
2019-02-26T07:15:16.041Z,4.03
2019-02-26T07:17:45.924Z,4.20
2019-02-26T07:20:14.917Z,7.70
2019-02-26T07:22:44.113Z,3.20
2019-02-26T07:25:15.946Z,3.53
2019-02-26T07:27:43.920Z,3.60
2019-02-26T07:30:12.878Z,5.10
2019-02-26T07:32:43.192Z,4.33
2019-02-26T07:35:13.787Z,3.33
2019-02-26T07:37:41.797Z,4.47
2019-02-26T07:40:15.722Z,3.90
2019-02-26T07:42:44.743Z,4.47
2019-02-26T07:45:15.306Z,3.13
2019-02-26T07:47:45.246Z,3.47
2019-02-26T07:50:17.472Z,3.53
2019-02-26T07:52:47.384Z,2.57
2019-02-26T07:55:17.441Z,2.50
2019-02-26T07:57:48.934Z,2.83
2019-02-26T08:00:19.250Z,2.70
2019-02-26T08:02:47.728Z,3.07
2019-02-26T08:05:18.481Z,2.87
2019-02-26T08:07:48.399Z,2.43
2019-02-26T08:10:19.549Z,2.90
2019-02-26T08:12:48.514Z,1.87
2019-02-26T08:15:17.126Z,2.53
2019-02-26T08:17:47.974Z,2.67
2019-02-26T08:20:15.974Z,2.37
2019-02-26T08:22:44.455Z,3.97
2019-02-26T08:25:14.077Z,2.30
2019-02-26T08:27:42.866Z,3.13
2019-02-26T08:30:14.837Z,1.97
2019-02-26T08:32:48.442Z,1.93
2019-02-26T08:35:17.866Z,2.47
2019-02-26T08:37:44.794Z,4.03
2019-02-26T08:40:14.027Z,3.57
2019-02-26T08:42:42.480Z,3.67
2019-02-26T08:45:15.099Z,3.30
2019-02-26T08:47:43.729Z,3.33
2019-02-26T08:50:14.850Z,3.60
2019-02-26T08:52:44.878Z,3.90
2019-02-26T08:55:16.130Z,4.27
2019-02-26T08:57:45.267Z,9.87
2019-02-26T09:00:19.012Z,7.90
2019-02-26T09:02:50.553Z,4.03
2019-02-26T09:05:17.878Z,5.10
2019-02-26T09:07:47.510Z,4.73
2019-02-26T09:10:17.848Z,4.30
2019-02-26T09:12:48.978Z,4.47
2019-02-26T09:15:18.622Z,5.43
2019-02-26T09:17:47.173Z,5.63
2019-02-26T09:20:19.696Z,6.93
2019-02-26T09:22:50.768Z,10.70
2019-02-26T09:25:20.399Z,11.53
2019-02-26T09:27:48.816Z,14.47
2019-02-26T09:30:19.331Z,12.97
2019-02-26T09:32:48.091Z,14.43
2019-02-26T09:35:19.964Z,10.43
2019-02-26T09:37:49.961Z,14.30
2019-02-26T09:40:20.380Z,13.03
2019-02-26T09:42:52.348Z,11.93
2019-02-26T09:45:23.658Z,11.57
2019-02-26T09:47:54.973Z,11.07
2019-02-26T09:50:22.944Z,8.53
2019-02-26T09:52:53.438Z,7.47
2019-02-26T09:55:21.721Z,6.40
2019-02-26T09:57:50.207Z,6.93
2019-02-26T10:00:25.876Z,6.63
2019-02-26T10:02:52.983Z,4.50
2019-02-26T10:05:21.520Z,4.00
2019-02-26T10:07:54.473Z,4.23
2019-02-26T10:10:22.936Z,3.30
2019-02-26T10:12:53.852Z,4.33
2019-02-26T10:15:21.694Z,4.70
2019-02-26T10:17:50.137Z,3.90
2019-02-26T10:20:28.621Z,6.53
2019-02-26T10:22:59.984Z,6.47
2019-02-26T10:25:28.678Z,3.47
2019-02-26T10:27:56.474Z,2.97
2019-02-26T10:30:24.961Z,2.93
2019-02-26T10:32:53.405Z,3.97
2019-02-26T10:35:32.507Z,3.30
2019-02-26T10:37:57.555Z,6.67
2019-02-26T10:40:35.261Z,5.53
2019-02-26T10:42:58.161Z,5.40
2019-02-26T10:45:29.705Z,3.80
2019-02-26T10:47:59.401Z,3.60
2019-02-26T10:50:31.670Z,4.87
2019-02-26T10:53:06.853Z,4.10
2019-02-26T10:55:35.389Z,4.10
2019-02-26T10:58:04.110Z,5.33
2019-02-26T11:00:32.154Z,4.63
2019-02-26T11:03:00.485Z,4.90
2019-02-26T11:05:29.030Z,4.07
2019-02-26T11:07:59.759Z,4.43
2019-02-26T11:10:27.674Z,6.67
2019-02-26T11:12:58.635Z,6.50
2019-02-26T11:15:29.770Z,7.93
2019-02-26T11:17:56.521Z,7.47
2019-02-26T11:20:27.720Z,6.77
2019-02-26T11:22:55.255Z,6.50
2019-02-26T11:25:26.488Z,5.43
2019-02-26T11:27:53.963Z,4.67
2019-02-26T11:30:27.174Z,6.07
2019-02-26T11:32:58.618Z,4.07
2019-02-26T11:35:27.130Z,6.63
2019-02-26T11:37:57.399Z,4.10
2019-02-26T11:40:29.650Z,5.00
2019-02-26T11:42:56.448Z,5.53
2019-02-26T11:45:25.072Z,4.17
2019-02-26T11:47:55.759Z,4.43
2019-02-26T11:50:27.965Z,6.13
2019-02-26T11:52:57.366Z,5.10
2019-02-26T11:55:28.535Z,3.80
2019-02-26T11:57:56.259Z,4.47
2019-02-26T12:00:44.797Z,4.27
2019-02-26T12:03:13.330Z,3.40
2019-02-26T12:05:41.943Z,5.00
2019-02-26T12:08:11.540Z,3.20
2019-02-26T12:10:41.006Z,4.50
2019-02-26T12:13:09.699Z,3.93
2019-02-26T12:15:41.527Z,4.07
2019-02-26T12:18:10.132Z,3.07
2019-02-26T12:20:40.968Z,4.37
2019-02-26T12:23:11.610Z,2.80
2019-02-26T12:25:39.374Z,3.10
2019-02-26T12:28:09.068Z,4.43
2019-02-26T12:30:41.514Z,3.17
2019-02-26T12:33:09.848Z,3.87
2019-02-26T12:35:40.443Z,3.47
2019-02-26T12:38:18.090Z,5.30
2019-02-26T12:40:41.950Z,3.50
2019-02-26T12:43:11.772Z,3.40
2019-02-26T12:45:40.648Z,4.40
2019-02-26T12:50:40.448Z,5.67
2019-02-26T12:53:12.516Z,4.93
2019-02-26T12:55:42.321Z,4.27
2019-02-26T12:58:11.281Z,4.07
2019-02-26T13:00:41.986Z,4.63
2019-02-26T13:03:12.751Z,4.63
2019-02-26T13:05:42.412Z,4.23
2019-02-26T13:08:13.438Z,4.47
2019-02-26T13:10:42.619Z,3.30
2019-02-26T13:13:11.118Z,2.70
2019-02-26T13:15:39.580Z,3.17
2019-02-26T13:18:08.068Z,2.83
2019-02-26T13:20:36.523Z,2.90
2019-02-26T13:23:17.160Z,4.20
2019-02-26T13:25:35.581Z,4.17
2019-02-26T13:28:04.148Z,3.30
2019-02-26T13:30:32.607Z,6.03
2019-02-26T13:33:05.468Z,4.17
2019-02-26T13:35:31.653Z,5.40
2019-02-26T13:38:02.554Z,4.27
2019-02-26T13:40:38.232Z,3.83
2019-02-26T13:45:30.607Z,4.07
2019-02-26T13:48:01.322Z,3.90
2019-02-26T13:50:30.620Z,3.73
2019-02-26T13:52:59.150Z,6.23
2019-02-26T13:55:27.711Z,4.03
2019-02-26T13:57:56.299Z,6.00
2019-02-26T14:00:26.775Z,4.63
2019-02-26T14:02:55.064Z,5.10
2019-02-26T14:05:23.821Z,6.13
2019-02-26T14:07:52.419Z,4.17
2019-02-26T14:10:23.195Z,5.50
2019-02-26T14:12:51.748Z,5.17
2019-02-26T14:15:25.871Z,5.53
2019-02-26T14:17:54.795Z,4.37
2019-02-26T14:20:23.332Z,5.27
2019-02-26T14:22:52.360Z,4.13
2019-02-26T14:25:20.849Z,5.67
2019-02-26T14:27:49.365Z,3.30
2019-02-26T14:30:19.067Z,3.33
2019-02-26T14:32:47.619Z,4.73
2019-02-26T14:35:16.361Z,4.10
2019-02-26T14:37:44.902Z,4.90
2019-02-26T14:40:15.987Z,4.03
2019-02-26T14:42:44.538Z,4.47
2019-02-26T14:45:21.049Z,4.77
2019-02-26T14:47:49.880Z,4.93
2019-02-26T14:50:19.677Z,2.97
2019-02-26T14:52:48.207Z,3.83
2019-02-26T14:55:17.239Z,4.80
2019-02-26T14:57:45.754Z,5.17
2019-02-26T15:00:31.499Z,5.43
2019-02-26T15:03:00.085Z,5.27
2019-02-26T15:05:28.581Z,4.67
2019-02-26T15:07:57.065Z,6.20
2019-02-26T15:10:25.919Z,6.17
2019-02-26T15:12:54.767Z,5.83
2019-02-26T15:15:23.303Z,5.17
2019-02-26T15:17:51.852Z,5.17
2019-02-26T15:20:22.513Z,7.77
2019-02-26T15:22:50.995Z,6.13
2019-02-26T15:25:29.585Z,5.07
2019-02-26T15:28:04.733Z,5.83
2019-02-26T15:30:28.395Z,5.03
2019-02-26T15:32:57.015Z,5.77
2019-02-26T15:35:25.843Z,4.13
2019-02-26T15:37:54.302Z,6.30
2019-02-26T15:40:23.096Z,5.37
2019-02-26T15:42:53.005Z,4.20
2019-02-26T15:45:24.847Z,5.83
2019-02-26T15:47:53.699Z,4.37
2019-02-26T15:50:22.494Z,3.40
2019-02-26T15:52:53.054Z,3.57
2019-02-26T15:55:28.720Z,2.83
2019-02-26T15:57:56.027Z,2.87
2019-02-26T16:00:25.305Z,3.60
2019-02-26T16:02:59.042Z,4.17
2019-02-26T16:05:38.259Z,3.60
2019-02-26T16:08:07.001Z,3.13
2019-02-26T16:10:35.827Z,3.10
2019-02-26T16:13:04.425Z,4.37
2019-02-26T16:15:34.702Z,4.87
2019-02-26T16:18:03.250Z,5.83
2019-02-26T16:20:32.355Z,5.87
2019-02-26T16:23:00.840Z,2.97
2019-02-26T16:25:29.374Z,5.00
2019-02-26T16:27:57.866Z,4.90
2019-02-26T16:30:27.712Z,3.70
2019-02-26T16:32:56.444Z,2.93
2019-02-26T16:35:25.686Z,4.40
2019-02-26T16:37:54.415Z,3.20
2019-02-26T16:40:22.968Z,3.57
2019-02-26T16:42:51.813Z,3.23
2019-02-26T16:45:22.221Z,6.27
2019-02-26T16:47:50.678Z,4.90
2019-02-26T16:50:21.499Z,5.53
2019-02-26T16:52:50.035Z,5.27
2019-02-26T16:55:18.939Z,4.00
2019-02-26T16:57:47.766Z,3.67
2019-02-26T17:00:21.891Z,2.33
2019-02-26T17:02:50.365Z,5.23
2019-02-26T17:05:18.839Z,4.37
2019-02-26T17:07:47.333Z,3.37
2019-02-26T17:10:29.137Z,3.30
2019-02-26T17:12:56.738Z,4.60
2019-02-26T17:15:27.806Z,3.70
2019-02-26T17:17:56.382Z,2.67
2019-02-26T17:20:26.436Z,3.50
2019-02-26T17:22:55.065Z,3.23
2019-02-26T17:25:27.543Z,2.60
2019-02-26T17:27:54.541Z,5.40
2019-02-26T17:30:23.863Z,4.87
2019-02-26T17:32:53.483Z,3.57
2019-02-26T17:35:22.159Z,3.90
2019-02-26T17:37:50.685Z,4.50
2019-02-26T17:40:24.257Z,3.73
2019-02-26T17:42:54.262Z,3.37
2019-02-26T17:45:28.227Z,2.03
2019-02-26T17:47:57.412Z,3.17
2019-02-26T17:50:35.039Z,2.20
2019-02-26T17:53:03.822Z,1.43
2019-02-26T17:55:32.549Z,2.40
2019-02-26T17:58:01.256Z,4.73
2019-02-26T18:00:31.908Z,1.70
2019-02-26T18:03:00.444Z,1.90
2019-02-26T18:05:28.915Z,2.03
2019-02-26T18:07:57.373Z,4.10
2019-02-26T18:10:27.044Z,1.77
2019-02-26T18:12:55.649Z,2.17
2019-02-26T18:15:24.389Z,2.90
2019-02-26T18:17:52.840Z,2.73
2019-02-26T18:20:22.442Z,2.97
2019-02-26T18:22:50.902Z,2.80
2019-02-26T18:25:21.967Z,3.20
2019-02-26T18:27:50.443Z,2.67
2019-02-26T18:30:23.360Z,2.43
2019-02-26T18:32:55.638Z,2.90
2019-02-26T18:35:22.164Z,3.47
2019-02-26T18:37:51.000Z,3.33
2019-02-26T18:40:20.308Z,2.87
2019-02-26T18:42:49.209Z,4.50
2019-02-26T18:45:27.447Z,2.20
2019-02-26T18:47:54.101Z,2.23
2019-02-26T18:50:23.126Z,4.70
2019-02-26T18:52:51.583Z,1.93
2019-02-26T18:55:20.903Z,2.13
2019-02-26T18:57:49.433Z,2.03
2019-02-26T19:00:26.467Z,1.90
2019-02-26T19:02:55.151Z,2.87
2019-02-26T19:05:23.750Z,1.70
2019-02-26T19:07:52.379Z,2.57
2019-02-26T19:10:21.157Z,2.13
2019-02-26T19:12:49.717Z,1.50
2019-02-26T19:15:20.652Z,2.27
2019-02-26T19:17:50.905Z,1.67
2019-02-26T19:20:22.081Z,2.40
2019-02-26T19:22:51.985Z,2.07
2019-02-26T19:25:20.689Z,1.00
2019-02-26T19:27:52.829Z,1.10
2019-02-26T19:30:21.567Z,1.50
2019-02-26T19:32:50.083Z,1.83
2019-02-26T19:35:18.544Z,2.23
2019-02-26T19:37:49.554Z,1.97
2019-02-26T19:40:20.835Z,6.37
2019-02-26T19:42:52.698Z,3.87
2019-02-26T19:45:19.839Z,14.23
2019-02-26T19:47:48.295Z,2.70
2019-02-26T19:50:17.695Z,2.97
2019-02-26T19:52:46.133Z,1.40
2019-02-26T19:55:22.353Z,2.83
2019-02-26T19:57:50.815Z,4.33
2019-02-26T20:00:20.007Z,1.30
2019-02-26T20:02:48.993Z,1.00
2019-02-26T20:05:17.438Z,1.00
2019-02-26T20:07:45.929Z,1.20
2019-02-26T20:10:16.701Z,2.00
2019-02-26T20:12:45.236Z,0.87
2019-02-26T20:15:14.745Z,1.27
2019-02-26T20:17:43.286Z,1.27
2019-02-26T20:20:16.841Z,1.37
2019-02-26T20:22:45.385Z,0.90
2019-02-26T20:25:18.867Z,0.80
2019-02-26T20:27:47.425Z,1.83
2019-02-26T20:30:18.149Z,1.77
2019-02-26T20:32:46.591Z,1.50
2019-02-26T20:35:16.053Z,1.00
2019-02-26T20:37:44.622Z,1.60
2019-02-26T20:40:18.664Z,1.07
2019-02-26T20:42:47.106Z,2.87
2019-02-26T20:45:19.238Z,1.13
2019-02-26T20:47:48.334Z,1.30
2019-02-26T20:50:20.077Z,1.70
2019-02-26T20:52:47.229Z,1.30
2019-02-26T20:55:21.443Z,1.23
2019-02-26T20:57:49.999Z,1.80
2019-02-26T21:00:19.624Z,1.93
2019-02-26T21:02:48.534Z,1.50
2019-02-26T21:05:17.127Z,2.63
2019-02-26T21:07:45.687Z,1.90
2019-02-26T21:10:16.140Z,2.03
2019-02-26T21:12:44.695Z,1.67
2019-02-26T21:15:21.304Z,1.30
2019-02-26T21:17:49.841Z,3.40
2019-02-26T21:20:18.309Z,1.83
2019-02-26T21:22:46.853Z,1.90
2019-02-26T21:25:15.779Z,1.40
2019-02-26T21:27:44.291Z,2.43
2019-02-26T21:30:18.778Z,4.87
2019-02-26T21:32:47.312Z,1.90
2019-02-26T21:35:20.076Z,3.43
2019-02-26T21:37:48.178Z,1.73
2019-02-26T21:40:16.919Z,2.80
2019-02-26T21:42:45.606Z,2.23
2019-02-26T21:45:16.289Z,2.30
2019-02-26T21:47:44.942Z,2.67
2019-02-26T21:50:14.518Z,2.80
2019-02-26T21:52:43.067Z,2.17
2019-02-26T21:55:12.874Z,3.93
2019-02-26T21:57:41.678Z,1.53
2019-02-26T22:00:16.030Z,2.67
2019-02-26T22:02:44.573Z,3.00
2019-02-26T22:05:13.172Z,3.20
2019-02-26T22:07:41.706Z,2.53
2019-02-26T22:10:17.523Z,2.27
2019-02-26T22:12:46.169Z,2.13
2019-02-26T22:15:15.863Z,2.00
2019-02-26T22:17:44.330Z,1.83
2019-02-26T22:20:35.383Z,3.60
2019-02-26T22:22:49.930Z,3.93
2019-02-26T22:25:18.555Z,2.27
2019-02-26T22:27:47.020Z,2.20
2019-02-26T22:30:21.454Z,1.70
2019-02-26T22:32:47.107Z,2.27
2019-02-26T22:35:15.938Z,2.27
2019-02-26T22:37:44.723Z,2.53
2019-02-26T22:40:14.039Z,2.10
2019-02-26T22:42:42.510Z,3.63
2019-02-26T22:45:17.041Z,3.00
2019-02-26T22:47:45.635Z,3.27
2019-02-26T22:50:15.133Z,3.57
2019-02-26T22:52:43.747Z,3.50
2019-02-26T22:55:16.607Z,5.10
2019-02-26T22:57:44.683Z,4.47
2019-02-26T23:00:35.457Z,3.33
2019-02-26T23:03:04.865Z,3.83
2019-02-26T23:05:33.343Z,4.10
2019-02-26T23:08:01.787Z,5.27
2019-02-26T23:10:30.321Z,5.30
2019-02-26T23:12:58.877Z,4.90
2019-02-26T23:15:27.526Z,4.00
2019-02-26T23:17:58.388Z,6.30
2019-02-26T23:20:26.510Z,4.90
2019-02-26T23:22:55.427Z,5.60
2019-02-26T23:25:24.097Z,5.97
2019-02-26T23:27:52.650Z,5.03
2019-02-26T23:30:21.238Z,5.57
2019-02-26T23:32:49.764Z,5.70
2019-02-26T23:35:18.228Z,5.20
2019-02-26T23:37:47.099Z,5.93
2019-02-26T23:40:16.514Z,5.83
2019-02-26T23:42:45.035Z,6.30
2019-02-26T23:45:13.841Z,5.73
2019-02-26T23:47:42.967Z,8.73
2019-02-26T23:50:12.218Z,5.47
2019-02-26T23:52:40.733Z,5.87
2019-02-26T23:55:13.421Z,5.27
2019-02-26T23:57:41.430Z,5.40
